createdAt,value
2023-01-17T00:00:30.219Z,527.00
2023-01-17T00:01:30.168Z,527.00
2023-01-17T00:02:30.178Z,527.00
2023-01-17T00:03:30.162Z,528.00
2023-01-17T00:04:30.145Z,528.00
2023-01-17T00:05:30.092Z,529.00
2023-01-17T00:06:30.069Z,530.00
2023-01-17T00:07:30.058Z,531.00
2023-01-17T00:08:30.062Z,532.00
2023-01-17T00:09:30.031Z,529.00
2023-01-17T00:10:30.042Z,529.00
2023-01-17T00:11:30.005Z,529.00
2023-01-17T00:12:29.993Z,531.00
2023-01-17T00:13:30.020Z,530.00
2023-01-17T00:14:29.967Z,529.00
2023-01-17T00:15:29.949Z,528.00
2023-01-17T00:16:29.950Z,527.00
2023-01-17T00:17:29.934Z,525.00
2023-01-17T00:18:29.929Z,528.00
2023-01-17T00:19:29.924Z,527.00
2023-01-17T00:20:29.913Z,526.00
2023-01-17T00:21:29.890Z,524.00
2023-01-17T00:22:29.891Z,525.00
2023-01-17T00:23:29.859Z,525.00
2023-01-17T00:24:29.854Z,525.00
2023-01-17T00:25:29.839Z,525.00
2023-01-17T00:26:29.831Z,524.00
2023-01-17T00:27:29.815Z,520.00
2023-01-17T00:28:29.798Z,519.00
2023-01-17T00:29:29.777Z,517.00
2023-01-17T00:30:29.761Z,515.00
2023-01-17T00:31:29.789Z,514.00
2023-01-17T00:32:29.729Z,512.00
2023-01-17T00:33:29.732Z,515.00
2023-01-17T00:34:29.695Z,513.00
2023-01-17T00:35:29.687Z,512.00
2023-01-17T00:36:29.676Z,515.00
2023-01-17T00:37:29.653Z,516.00
2023-01-17T00:38:29.648Z,517.00
2023-01-17T00:39:29.641Z,517.00
2023-01-17T00:40:29.649Z,519.00
2023-01-17T00:41:29.611Z,515.00
2023-01-17T00:42:29.586Z,516.00
2023-01-17T00:43:29.610Z,516.00
2023-01-17T00:44:29.566Z,515.00
2023-01-17T00:45:29.588Z,513.00
2023-01-17T00:46:29.560Z,513.00
2023-01-17T00:47:29.522Z,513.00
2023-01-17T00:48:29.540Z,513.00
2023-01-17T00:49:29.495Z,510.00
2023-01-17T00:50:29.500Z,511.00
2023-01-17T00:51:29.472Z,512.00
2023-01-17T00:52:29.453Z,514.00
2023-01-17T00:53:29.447Z,515.00
2023-01-17T00:54:29.425Z,516.00
2023-01-17T00:55:29.400Z,516.00
2023-01-17T00:56:29.391Z,514.00
2023-01-17T00:57:29.383Z,512.00
2023-01-17T00:58:29.367Z,514.00
2023-01-17T00:59:29.370Z,513.00
2023-01-17T01:00:29.352Z,513.00
2023-01-17T01:01:29.451Z,511.00
2023-01-17T01:02:29.357Z,510.00
2023-01-17T01:03:29.389Z,511.00
2023-01-17T01:04:29.301Z,508.00
2023-01-17T01:05:29.276Z,508.00
2023-01-17T01:06:29.264Z,508.00
2023-01-17T01:07:29.250Z,508.00
2023-01-17T01:08:29.228Z,508.00
2023-01-17T01:09:29.246Z,511.00
2023-01-17T01:10:29.203Z,510.00
2023-01-17T01:11:29.183Z,510.00
2023-01-17T01:12:29.193Z,510.00
2023-01-17T01:13:29.150Z,509.00
2023-01-17T01:14:29.145Z,511.00
2023-01-17T01:15:29.131Z,512.00
2023-01-17T01:16:29.134Z,510.00
2023-01-17T01:17:29.108Z,508.00
2023-01-17T01:18:29.094Z,508.00
2023-01-17T01:19:29.075Z,506.00
2023-01-17T01:20:29.059Z,506.00
2023-01-17T01:21:29.046Z,506.00
2023-01-17T01:22:29.031Z,506.00
2023-01-17T01:23:29.035Z,506.00
2023-01-17T01:24:29.000Z,506.00
2023-01-17T01:25:28.981Z,505.00
2023-01-17T01:26:28.979Z,506.00
2023-01-17T01:27:28.934Z,507.00
2023-01-17T01:28:28.943Z,504.00
2023-01-17T01:29:28.931Z,504.00
2023-01-17T01:30:28.904Z,504.00
2023-01-17T01:31:28.897Z,505.00
2023-01-17T01:32:28.861Z,506.00
2023-01-17T01:33:28.843Z,504.00
2023-01-17T01:34:28.830Z,505.00
2023-01-17T01:35:28.836Z,504.00
2023-01-17T01:36:28.788Z,502.00
2023-01-17T01:37:28.782Z,501.00
2023-01-17T01:38:28.771Z,501.00
2023-01-17T01:39:28.760Z,500.00
2023-01-17T01:40:28.727Z,499.00
2023-01-17T01:41:28.706Z,496.00
2023-01-17T01:42:28.687Z,493.00
2023-01-17T01:43:28.679Z,496.00
2023-01-17T01:44:28.692Z,497.00
2023-01-17T01:45:28.723Z,495.00
2023-01-17T01:46:28.631Z,492.00
2023-01-17T01:47:28.629Z,494.00
2023-01-17T01:48:28.601Z,492.00
2023-01-17T01:49:28.590Z,491.00
2023-01-17T01:50:28.585Z,490.00
2023-01-17T01:51:28.555Z,491.00
2023-01-17T01:52:28.552Z,492.00
2023-01-17T01:53:28.553Z,495.00
2023-01-17T01:54:28.528Z,495.00
2023-01-17T01:55:28.530Z,496.00
2023-01-17T01:56:28.492Z,494.00
2023-01-17T01:57:28.478Z,493.00
2023-01-17T01:58:28.460Z,494.00
2023-01-17T01:59:28.455Z,495.00
2023-01-17T02:00:28.452Z,498.00
2023-01-17T02:01:28.563Z,497.00
2023-01-17T02:02:28.412Z,496.00
2023-01-17T02:03:28.427Z,500.00
2023-01-17T02:04:28.385Z,501.00
2023-01-17T02:05:28.370Z,500.00
2023-01-17T02:06:28.371Z,498.00
2023-01-17T02:07:28.333Z,498.00
2023-01-17T02:08:28.323Z,497.00
2023-01-17T02:09:28.318Z,498.00
2023-01-17T02:10:28.291Z,496.00
2023-01-17T02:11:28.280Z,499.00
2023-01-17T02:12:28.258Z,501.00
2023-01-17T02:13:28.265Z,501.00
2023-01-17T02:14:28.230Z,498.00
2023-01-17T02:15:28.216Z,499.00
2023-01-17T02:16:28.293Z,501.00
2023-01-17T02:17:28.201Z,501.00
2023-01-17T02:18:28.187Z,500.00
2023-01-17T02:19:28.168Z,500.00
2023-01-17T02:20:28.177Z,497.00
2023-01-17T02:21:28.166Z,498.00
2023-01-17T02:22:28.127Z,500.00
2023-01-17T02:23:28.140Z,502.00
2023-01-17T02:24:28.114Z,503.00
2023-01-17T02:25:28.137Z,501.00
2023-01-17T02:26:28.101Z,500.00
2023-01-17T02:27:28.081Z,501.00
2023-01-17T02:28:28.070Z,499.00
2023-01-17T02:29:28.067Z,499.00
2023-01-17T02:30:28.039Z,498.00
2023-01-17T02:31:28.062Z,496.00
2023-01-17T02:32:28.005Z,497.00
2023-01-17T02:33:28.003Z,499.00
2023-01-17T02:34:27.992Z,499.00
2023-01-17T02:35:27.968Z,498.00
2023-01-17T02:36:27.949Z,502.00
2023-01-17T02:37:27.927Z,503.00
2023-01-17T02:38:27.921Z,504.00
2023-01-17T02:39:27.941Z,504.00
2023-01-17T02:40:27.890Z,502.00
2023-01-17T02:41:27.881Z,501.00
2023-01-17T02:42:27.895Z,501.00
2023-01-17T02:43:27.853Z,496.00
2023-01-17T02:44:27.850Z,494.00
2023-01-17T02:45:27.892Z,496.00
2023-01-17T02:46:27.831Z,498.00
2023-01-17T02:47:27.804Z,495.00
2023-01-17T02:48:27.792Z,494.00
2023-01-17T02:49:27.778Z,493.00
2023-01-17T02:50:27.806Z,493.00
2023-01-17T02:51:27.748Z,492.00
2023-01-17T02:52:27.732Z,492.00
2023-01-17T02:53:27.714Z,492.00
2023-01-17T02:54:27.701Z,491.00
2023-01-17T02:55:27.690Z,492.00
2023-01-17T02:56:27.684Z,492.00
2023-01-17T02:57:27.652Z,492.00
2023-01-17T02:58:27.635Z,491.00
2023-01-17T02:59:27.656Z,489.00
2023-01-17T03:00:27.609Z,487.00
2023-01-17T03:01:27.761Z,489.00
2023-01-17T03:02:27.666Z,491.00
2023-01-17T03:03:27.541Z,492.00
2023-01-17T03:04:27.535Z,491.00
2023-01-17T03:05:27.513Z,490.00
2023-01-17T03:06:27.494Z,487.00
2023-01-17T03:07:27.469Z,489.00
2023-01-17T03:08:27.451Z,491.00
2023-01-17T03:09:27.427Z,492.00
2023-01-17T03:10:27.425Z,490.00
2023-01-17T03:11:27.426Z,491.00
2023-01-17T03:12:27.380Z,491.00
2023-01-17T03:13:27.359Z,490.00
2023-01-17T03:14:27.364Z,490.00
2023-01-17T03:15:27.353Z,488.00
2023-01-17T03:16:27.420Z,490.00
2023-01-17T03:17:27.301Z,486.00
2023-01-17T03:18:27.288Z,484.00
2023-01-17T03:19:27.264Z,483.00
2023-01-17T03:20:27.268Z,481.00
2023-01-17T03:21:27.256Z,480.00
2023-01-17T03:22:27.220Z,481.00
2023-01-17T03:23:27.234Z,482.00
2023-01-17T03:24:27.200Z,482.00
2023-01-17T03:25:27.191Z,482.00
2023-01-17T03:26:27.173Z,482.00
2023-01-17T03:27:27.149Z,481.00
2023-01-17T03:28:27.141Z,485.00
2023-01-17T03:29:27.152Z,487.00
2023-01-17T03:30:27.177Z,488.00
2023-01-17T03:31:27.115Z,485.00
2023-01-17T03:32:27.079Z,482.00
2023-01-17T03:33:27.095Z,483.00
2023-01-17T03:34:27.061Z,482.00
2023-01-17T03:35:27.082Z,482.00
2023-01-17T03:36:27.048Z,484.00
2023-01-17T03:37:27.030Z,485.00
2023-01-17T03:38:27.015Z,484.00
2023-01-17T03:39:27.001Z,484.00
2023-01-17T03:40:26.997Z,482.00
2023-01-17T03:41:26.994Z,482.00
2023-01-17T03:42:26.976Z,483.00
2023-01-17T03:43:26.976Z,482.00
2023-01-17T03:44:26.968Z,479.00
2023-01-17T03:45:26.941Z,481.00
2023-01-17T03:47:26.934Z,484.00
2023-01-17T04:36:26.364Z,468.00
2023-01-17T04:37:26.342Z,467.00
2023-01-17T04:38:26.330Z,465.00
2023-01-17T04:39:26.312Z,464.00
2023-01-17T04:40:26.303Z,465.00
2023-01-17T04:41:26.273Z,467.00
2023-01-17T04:42:26.277Z,467.00
2023-01-17T04:43:26.245Z,463.00
2023-01-17T04:44:26.248Z,463.00
2023-01-17T04:45:26.278Z,460.00
2023-01-17T04:46:26.272Z,459.00
2023-01-17T04:47:26.222Z,459.00
2023-01-17T04:48:26.207Z,461.00
2023-01-17T04:49:26.176Z,460.00
2023-01-17T04:50:26.158Z,460.00
2023-01-17T04:51:26.145Z,459.00
2023-01-17T04:52:26.133Z,457.00
2023-01-17T04:53:26.135Z,458.00
2023-01-17T04:54:26.118Z,457.00
2023-01-17T04:55:26.095Z,455.00
2023-01-17T04:56:26.089Z,454.00
2023-01-17T04:57:26.074Z,455.00
2023-01-17T04:58:26.071Z,453.00
2023-01-17T04:59:26.055Z,453.00
2023-01-17T05:00:26.051Z,451.00
2023-01-17T05:01:26.153Z,449.00
2023-01-17T05:02:26.054Z,447.00
2023-01-17T05:03:26.011Z,447.00
2023-01-17T05:04:26.005Z,446.00
2023-01-17T05:05:25.984Z,449.00
2023-01-17T05:06:25.971Z,448.00
2023-01-17T05:07:25.964Z,450.00
2023-01-17T05:08:25.968Z,451.00
2023-01-17T05:09:25.948Z,448.00
2023-01-17T05:10:25.923Z,449.00
2023-01-17T05:11:25.913Z,452.00
2023-01-17T05:12:25.914Z,451.00
2023-01-17T05:13:25.901Z,451.00
2023-01-17T05:14:25.892Z,450.00
2023-01-17T05:15:25.925Z,450.00
2023-01-17T05:16:25.873Z,452.00
2023-01-17T05:17:25.857Z,451.00
2023-01-17T05:18:25.834Z,451.00
2023-01-17T05:19:25.828Z,448.00
2023-01-17T05:20:25.824Z,447.00
2023-01-17T05:21:25.823Z,442.00
2023-01-17T05:22:25.776Z,443.00
2023-01-17T05:23:25.760Z,446.00
2023-01-17T05:24:25.747Z,451.00
2023-01-17T05:25:25.731Z,449.00
2023-01-17T05:26:25.713Z,450.00
2023-01-17T05:27:25.725Z,452.00
2023-01-17T05:28:25.697Z,453.00
2023-01-17T05:29:25.677Z,451.00
2023-01-17T05:30:25.675Z,446.00
2023-01-17T05:31:25.764Z,447.00
2023-01-17T05:32:25.637Z,445.00
2023-01-17T05:33:25.634Z,446.00
2023-01-17T05:34:25.621Z,448.00
2023-01-17T05:35:25.615Z,446.00
2023-01-17T05:36:25.591Z,445.00
2023-01-17T05:37:25.580Z,446.00
2023-01-17T05:38:25.563Z,444.00
2023-01-17T05:39:25.547Z,445.00
2023-01-17T05:40:25.600Z,447.00
2023-01-17T05:41:25.530Z,447.00
2023-01-17T05:42:25.516Z,445.00
2023-01-17T05:43:25.530Z,443.00
2023-01-17T05:44:25.496Z,443.00
2023-01-17T05:45:25.471Z,440.00
2023-01-17T05:46:25.516Z,440.00
2023-01-17T05:47:25.442Z,440.00
2023-01-17T05:48:25.436Z,442.00
2023-01-17T05:49:25.428Z,439.00
2023-01-17T05:50:25.414Z,436.00
2023-01-17T05:51:25.400Z,436.00
2023-01-17T05:52:25.396Z,435.00
2023-01-17T05:53:25.377Z,435.00
2023-01-17T05:54:25.368Z,436.00
2023-01-17T05:55:25.343Z,433.00
2023-01-17T05:56:25.340Z,434.00
2023-01-17T05:57:25.325Z,433.00
2023-01-17T05:58:25.305Z,434.00
2023-01-17T05:59:36.484Z,433.00
2023-01-17T06:00:26.286Z,433.00
2023-01-17T06:01:25.303Z,434.00
2023-01-17T06:02:25.312Z,432.00
2023-01-17T06:03:25.232Z,432.00
2023-01-17T06:04:25.264Z,429.00
2023-01-17T06:05:25.202Z,433.00
2023-01-17T06:06:25.188Z,437.00
2023-01-17T06:07:25.175Z,438.00
2023-01-17T06:08:25.154Z,437.00
2023-01-17T06:09:25.179Z,439.00
2023-01-17T06:10:25.135Z,442.00
2023-01-17T06:11:25.110Z,441.00
2023-01-17T06:12:25.098Z,441.00
2023-01-17T06:13:25.093Z,439.00
2023-01-17T06:14:25.070Z,437.00
2023-01-17T06:15:25.028Z,434.00
2023-01-17T06:16:25.123Z,436.00
2023-01-17T06:17:25.027Z,435.00
2023-01-17T06:18:24.990Z,437.00
2023-01-17T06:19:24.989Z,435.00
2023-01-17T06:20:24.969Z,435.00
2023-01-17T06:21:24.936Z,431.00
2023-01-17T06:22:24.917Z,431.00
2023-01-17T06:23:24.902Z,431.00
2023-01-17T06:24:24.899Z,429.00
2023-01-17T06:25:24.882Z,427.00
2023-01-17T06:26:24.876Z,426.00
2023-01-17T06:27:24.847Z,423.00
2023-01-17T06:28:24.834Z,421.00
2023-01-17T06:29:24.837Z,419.00
2023-01-17T06:30:24.797Z,420.00
2023-01-17T06:31:24.798Z,420.00
2023-01-17T06:32:24.789Z,419.00
2023-01-17T06:33:24.754Z,416.00
2023-01-17T06:34:24.802Z,414.00
2023-01-17T06:35:24.741Z,415.00
2023-01-17T06:36:24.708Z,413.00
2023-01-17T06:37:24.709Z,417.00
2023-01-17T06:38:24.672Z,422.00
2023-01-17T06:39:24.793Z,425.00
2023-01-17T06:40:24.658Z,436.00
2023-01-17T06:41:24.632Z,444.00
2023-01-17T06:42:24.627Z,449.00
2023-01-17T06:43:24.596Z,452.00
2023-01-17T06:44:24.598Z,450.00
2023-01-17T06:45:24.844Z,450.00
2023-01-17T06:46:24.564Z,453.00
2023-01-17T06:47:24.514Z,459.00
2023-01-17T06:48:24.501Z,461.00
2023-01-17T06:49:24.478Z,473.00
2023-01-17T06:50:24.482Z,477.00
2023-01-17T06:51:24.445Z,478.00
2023-01-17T06:52:24.444Z,478.00
2023-01-17T06:53:24.446Z,477.00
2023-01-17T06:54:24.417Z,478.00
2023-01-17T06:55:24.383Z,475.00
2023-01-17T06:56:24.403Z,475.00
2023-01-17T06:57:24.349Z,475.00
2023-01-17T06:58:24.337Z,471.00
2023-01-17T06:59:24.327Z,469.00
2023-01-17T07:00:24.363Z,468.00
2023-01-17T07:01:24.359Z,469.00
2023-01-17T07:02:24.261Z,467.00
2023-01-17T07:03:24.253Z,465.00
2023-01-17T07:04:24.223Z,466.00
2023-01-17T07:05:24.202Z,466.00
2023-01-17T07:06:24.197Z,465.00
2023-01-17T07:07:24.205Z,466.00
2023-01-17T07:08:24.154Z,468.00
2023-01-17T07:09:24.161Z,466.00
2023-01-17T07:10:24.118Z,470.00
2023-01-17T10:19:21.297Z,598.00
2023-01-17T10:53:20.700Z,647.00
2023-01-17T10:54:20.681Z,647.00
2023-01-17T10:55:20.670Z,642.00
2023-01-17T10:56:20.651Z,640.00
2023-01-17T10:57:20.642Z,638.00
2023-01-17T10:58:20.612Z,637.00
2023-01-17T10:59:20.610Z,633.00
2023-01-17T11:00:20.586Z,632.00
2023-01-17T11:01:20.777Z,630.00
2023-01-17T11:02:20.665Z,629.00
2023-01-17T11:03:20.555Z,627.00
2023-01-17T11:04:20.556Z,630.00
2023-01-17T11:05:20.517Z,630.00
2023-01-17T11:06:20.500Z,635.00
2023-01-17T11:07:20.488Z,638.00
2023-01-17T11:08:20.468Z,638.00
2023-01-17T11:09:20.475Z,644.00
2023-01-17T11:10:20.449Z,653.00
2023-01-17T11:11:20.444Z,663.00
2023-01-17T11:12:20.429Z,660.00
2023-01-17T11:13:20.427Z,657.00
2023-01-17T11:14:20.395Z,659.00
2023-01-17T11:15:20.375Z,663.00
2023-01-17T11:16:20.359Z,661.00
2023-01-17T11:17:20.343Z,657.00
2023-01-17T11:18:20.334Z,654.00
2023-01-17T11:19:20.319Z,653.00
2023-01-17T11:20:20.358Z,657.00
2023-01-17T11:21:20.278Z,663.00
2023-01-17T11:22:20.269Z,666.00
2023-01-17T11:23:20.253Z,672.00
2023-01-17T11:24:20.255Z,676.00
2023-01-17T11:25:20.220Z,679.00
2023-01-17T11:26:20.219Z,681.00
2023-01-17T11:27:20.197Z,691.00
2023-01-17T11:28:20.189Z,692.00
2023-01-17T11:29:20.208Z,694.00
2023-01-17T11:30:20.200Z,698.00
2023-01-17T11:31:20.190Z,701.00
2023-01-17T11:32:20.146Z,704.00
2023-01-17T11:33:20.129Z,708.00
2023-01-17T11:34:20.120Z,711.00
2023-01-17T11:35:20.115Z,716.00
2023-01-17T11:36:20.089Z,716.00
2023-01-17T11:37:20.091Z,715.00
2023-01-17T11:38:20.066Z,716.00
2023-01-17T11:39:20.072Z,716.00
2023-01-17T11:40:20.048Z,720.00
2023-01-17T11:41:20.033Z,727.00
2023-01-17T11:42:20.025Z,721.00
2023-01-17T11:43:20.014Z,722.00
2023-01-17T11:44:20.004Z,720.00
2023-01-17T11:45:19.968Z,717.00
2023-01-17T11:46:20.003Z,714.00
2023-01-17T11:47:19.968Z,706.00
2023-01-17T11:48:19.939Z,703.00
2023-01-17T11:49:19.940Z,704.00
2023-01-17T11:50:19.909Z,705.00
2023-01-17T11:51:19.893Z,703.00
2023-01-17T11:52:19.887Z,701.00
2023-01-17T11:53:19.883Z,701.00
2023-01-17T11:54:19.861Z,699.00
2023-01-17T11:55:19.864Z,699.00
2023-01-17T11:56:19.839Z,700.00
2023-01-17T11:57:19.825Z,695.00
2023-01-17T11:58:19.856Z,695.00
2023-01-17T11:59:19.789Z,697.00
2023-01-17T12:00:19.850Z,701.00
2023-01-17T12:01:19.822Z,702.00
2023-01-17T12:02:19.746Z,703.00
2023-01-17T12:03:19.726Z,704.00
2023-01-17T12:04:19.718Z,704.00
2023-01-17T12:05:19.767Z,704.00
2023-01-17T12:06:19.695Z,709.00
2023-01-17T12:07:19.669Z,712.00
2023-01-17T12:08:19.643Z,713.00
2023-01-17T12:09:19.633Z,710.00
2023-01-17T12:10:19.626Z,711.00
2023-01-17T12:11:19.608Z,714.00
2023-01-17T12:12:19.575Z,715.00
2023-01-17T12:13:19.553Z,717.00
2023-01-17T12:14:19.551Z,717.00
2023-01-17T12:15:19.532Z,718.00
2023-01-17T12:16:19.527Z,721.00
2023-01-17T12:17:19.496Z,722.00
2023-01-17T12:18:19.494Z,724.00
2023-01-17T12:19:19.461Z,723.00
2023-01-17T12:20:20.737Z,723.00
2023-01-17T12:21:19.435Z,724.00
2023-01-17T12:22:19.428Z,728.00
2023-01-17T12:23:19.407Z,734.00
2023-01-17T12:24:19.398Z,736.00
2023-01-17T12:25:19.428Z,735.00
2023-01-17T12:26:19.389Z,746.00
2023-01-17T12:27:19.387Z,754.00
2023-01-17T12:28:19.343Z,757.00
2023-01-17T12:29:19.336Z,760.00
2023-01-17T12:30:19.332Z,759.00
2023-01-17T12:31:19.404Z,757.00
2023-01-17T12:32:19.309Z,759.00
2023-01-17T12:33:19.303Z,754.00
2023-01-17T12:34:19.274Z,752.00
2023-01-17T12:35:19.260Z,749.00
2023-01-17T12:36:19.243Z,740.00
2023-01-17T12:37:19.225Z,736.00
2023-01-17T12:38:31.764Z,737.00
2023-01-17T12:39:20.208Z,737.00
2023-01-17T12:40:19.186Z,735.00
2023-01-17T12:41:19.178Z,736.00
2023-01-17T12:42:19.147Z,738.00
2023-01-17T12:43:19.163Z,734.00
2023-01-17T12:44:19.129Z,731.00
2023-01-17T12:45:19.121Z,736.00
2023-01-17T12:46:19.121Z,736.00
2023-01-17T12:47:19.088Z,733.00
2023-01-17T12:48:19.057Z,732.00
2023-01-17T12:49:19.034Z,732.00
2023-01-17T12:50:19.040Z,732.00
2023-01-17T12:51:19.019Z,728.00
2023-01-17T12:52:19.021Z,723.00
2023-01-17T12:53:19.000Z,723.00
2023-01-17T12:54:18.973Z,718.00
2023-01-17T12:55:18.967Z,712.00
2023-01-17T12:56:18.939Z,708.00
2023-01-17T12:57:18.926Z,706.00
2023-01-17T12:58:18.903Z,707.00
2023-01-17T13:37:19.818Z,590.00
2023-01-17T15:09:16.528Z,674.00
2023-01-17T15:10:16.506Z,669.00
2023-01-17T15:11:16.471Z,660.00
2023-01-17T15:12:16.475Z,660.00
2023-01-17T15:13:16.448Z,663.00
2023-01-17T15:14:16.430Z,666.00
2023-01-17T15:15:16.423Z,667.00
2023-01-17T15:16:16.396Z,666.00
2023-01-17T15:17:16.360Z,662.00
2023-01-17T15:18:16.362Z,656.00
2023-01-17T15:19:16.327Z,658.00
2023-01-17T15:20:16.320Z,661.00
2023-01-17T15:21:16.314Z,662.00
2023-01-17T15:22:16.293Z,659.00
2023-01-17T15:23:16.269Z,658.00
2023-01-17T19:54:12.317Z,580.00
2023-01-17T19:55:12.318Z,582.00
2023-01-17T19:56:12.288Z,578.00
2023-01-17T19:57:12.280Z,578.00
2023-01-17T19:58:13.234Z,577.00
2023-01-17T19:59:12.250Z,575.00
2023-01-17T20:00:12.261Z,577.00
2023-01-17T20:01:12.293Z,577.00
2023-01-17T20:02:12.439Z,574.00
2023-01-17T20:03:12.223Z,576.00
2023-01-17T20:04:12.204Z,575.00
2023-01-17T20:05:12.217Z,575.00
2023-01-17T20:06:12.191Z,574.00
2023-01-17T20:07:12.172Z,574.00
2023-01-17T20:08:12.164Z,574.00
2023-01-17T20:09:12.146Z,574.00
2023-01-17T20:10:12.131Z,575.00
2023-01-17T20:11:12.127Z,576.00
2023-01-17T20:12:12.111Z,574.00
2023-01-17T20:13:12.108Z,577.00
2023-01-17T20:14:12.117Z,579.00
2023-01-17T20:15:12.090Z,581.00
2023-01-17T20:16:12.132Z,581.00
2023-01-17T20:17:12.073Z,582.00
2023-01-17T20:18:12.076Z,581.00
2023-01-17T20:19:12.050Z,579.00
2023-01-17T20:20:12.032Z,578.00
2023-01-17T20:21:12.021Z,577.00
2023-01-17T20:22:12.016Z,577.00
2023-01-17T20:23:12.007Z,581.00
2023-01-17T20:24:11.989Z,580.00
2023-01-17T20:25:11.970Z,581.00
2023-01-17T20:26:11.963Z,582.00
2023-01-17T20:27:11.931Z,584.00
2023-01-17T20:28:11.922Z,584.00
2023-01-17T20:29:11.901Z,589.00
2023-01-17T20:30:20.210Z,589.00
2023-01-17T20:31:12.862Z,587.00
2023-01-17T20:32:11.834Z,588.00
2023-01-17T20:33:11.832Z,586.00
2023-01-17T20:34:11.819Z,588.00
2023-01-17T20:35:11.798Z,587.00
2023-01-17T20:36:11.785Z,587.00
2023-01-17T20:37:11.757Z,587.00
2023-01-17T20:38:11.764Z,587.00
2023-01-17T20:39:11.758Z,584.00
2023-01-17T20:40:11.738Z,586.00
2023-01-17T20:41:11.715Z,585.00
2023-01-17T20:42:11.705Z,585.00
2023-01-17T20:43:11.683Z,584.00
2023-01-17T20:44:11.673Z,584.00
2023-01-17T20:45:11.663Z,585.00
2023-01-17T20:46:11.670Z,585.00
2023-01-17T20:47:11.630Z,584.00
2023-01-17T20:48:11.616Z,582.00
2023-01-17T20:49:11.604Z,583.00
2023-01-17T20:50:11.590Z,584.00
2023-01-17T20:51:11.585Z,585.00
2023-01-17T20:52:12.977Z,585.00
2023-01-17T20:53:11.541Z,585.00
2023-01-17T20:54:11.525Z,588.00
2023-01-17T20:55:11.511Z,588.00
2023-01-17T20:56:11.508Z,588.00
2023-01-17T20:57:11.488Z,589.00
2023-01-17T20:58:11.480Z,590.00
2023-01-17T20:59:11.439Z,590.00
2023-01-17T21:00:11.435Z,592.00
2023-01-17T21:01:11.451Z,593.00
2023-01-17T21:02:11.625Z,595.00
2023-01-17T21:03:11.379Z,593.00
2023-01-17T21:04:11.368Z,592.00
2023-01-17T21:05:11.348Z,594.00
2023-01-17T21:06:11.334Z,595.00
2023-01-17T21:07:11.312Z,594.00
2023-01-17T21:08:11.304Z,593.00
2023-01-17T21:09:11.277Z,594.00
2023-01-17T21:10:11.256Z,594.00
2023-01-17T21:11:11.250Z,593.00
2023-01-17T21:12:11.245Z,595.00
2023-01-17T21:13:11.213Z,597.00
2023-01-17T21:14:11.228Z,599.00
2023-01-17T21:15:11.185Z,598.00
2023-01-17T21:16:11.160Z,601.00
2023-01-17T21:17:11.141Z,599.00
2023-01-17T21:18:11.126Z,597.00
2023-01-17T21:19:11.122Z,597.00
2023-01-17T21:20:11.101Z,600.00
2023-01-17T21:21:11.084Z,600.00
2023-01-17T21:22:11.073Z,600.00
2023-01-17T21:23:11.039Z,601.00
2023-01-17T21:24:11.039Z,601.00
2023-01-17T21:25:11.014Z,603.00
2023-01-17T21:26:11.022Z,603.00
2023-01-17T21:27:10.989Z,602.00
2023-01-17T21:28:11.001Z,597.00
2023-01-17T21:29:10.969Z,595.00
2023-01-17T21:30:10.960Z,593.00
2023-01-17T21:31:10.927Z,592.00
2023-01-17T21:32:10.903Z,593.00
2023-01-17T21:33:10.885Z,592.00
2023-01-17T21:34:10.884Z,591.00
2023-01-17T21:35:10.856Z,590.00
2023-01-17T21:36:10.844Z,590.00
2023-01-17T21:37:10.817Z,588.00
2023-01-17T21:38:10.799Z,586.00
2023-01-17T21:39:10.780Z,589.00
2023-01-17T21:40:10.772Z,590.00
2023-01-17T21:41:10.752Z,590.00
2023-01-17T21:42:10.741Z,589.00
2023-01-17T21:43:10.735Z,589.00
2023-01-17T21:44:10.707Z,589.00
2023-01-17T21:45:10.693Z,591.00
2023-01-17T21:46:10.740Z,594.00
2023-01-17T21:47:10.663Z,596.00
2023-01-17T21:48:10.635Z,596.00
2023-01-17T21:49:10.794Z,594.00
2023-01-17T21:50:10.607Z,594.00
2023-01-17T21:51:10.603Z,593.00
2023-01-17T21:52:10.586Z,592.00
2023-01-17T21:53:10.549Z,590.00
2023-01-17T21:54:10.537Z,586.00
2023-01-17T21:55:10.534Z,586.00
2023-01-17T21:56:10.507Z,585.00
2023-01-17T21:57:10.496Z,587.00
2023-01-17T21:58:10.475Z,587.00
2023-01-17T21:59:10.464Z,587.00
2023-01-17T22:00:10.452Z,585.00
2023-01-17T22:01:10.521Z,584.00
2023-01-17T22:02:10.582Z,580.00
2023-01-17T22:03:10.389Z,580.00
2023-01-17T22:04:10.386Z,581.00
2023-01-17T22:05:10.342Z,583.00
2023-01-17T22:06:10.314Z,585.00
2023-01-17T22:07:10.301Z,583.00
2023-01-17T22:08:10.287Z,581.00
2023-01-17T22:09:10.286Z,584.00
2023-01-17T22:10:10.263Z,584.00
2023-01-17T22:11:10.245Z,583.00
2023-01-17T22:12:10.231Z,584.00
2023-01-17T22:13:10.217Z,585.00
2023-01-17T22:14:10.198Z,588.00
2023-01-17T22:15:10.200Z,588.00
2023-01-17T22:16:10.223Z,592.00
2023-01-17T22:17:10.134Z,590.00
2023-01-17T22:18:10.123Z,591.00
2023-01-17T22:19:10.112Z,589.00
2023-01-17T22:20:10.102Z,587.00
2023-01-17T22:21:10.103Z,586.00
2023-01-17T22:22:10.071Z,586.00
2023-01-17T22:23:10.072Z,585.00
2023-01-17T22:24:10.048Z,585.00
2023-01-17T22:25:10.042Z,586.00
2023-01-17T22:26:10.012Z,586.00
2023-01-17T22:27:09.994Z,586.00
2023-01-17T22:28:09.971Z,584.00
2023-01-17T22:29:09.957Z,584.00
2023-01-17T22:30:09.946Z,581.00
2023-01-17T22:31:09.941Z,582.00
2023-01-17T22:32:09.902Z,584.00
2023-01-17T22:33:09.886Z,584.00
2023-01-17T22:34:09.881Z,581.00
2023-01-17T22:35:09.842Z,577.00
2023-01-17T22:36:09.862Z,580.00
2023-01-17T22:37:09.865Z,581.00
2023-01-17T22:38:09.804Z,581.00
2023-01-17T22:39:09.786Z,581.00
2023-01-17T22:40:09.825Z,582.00
2023-01-17T22:41:09.760Z,582.00
2023-01-17T22:42:09.737Z,582.00
2023-01-17T22:43:09.713Z,580.00
2023-01-17T22:44:09.692Z,582.00
2023-01-17T22:45:09.692Z,582.00
2023-01-17T22:46:09.702Z,581.00
2023-01-17T22:47:09.648Z,581.00
2023-01-17T22:48:09.618Z,580.00
2023-01-17T22:49:09.608Z,581.00
2023-01-17T22:50:09.579Z,581.00
2023-01-17T22:51:09.573Z,582.00
2023-01-17T22:52:09.562Z,582.00
2023-01-17T22:53:09.527Z,581.00
2023-01-17T22:54:09.526Z,584.00
2023-01-17T22:55:09.497Z,583.00
2023-01-17T22:56:09.512Z,583.00
2023-01-17T22:57:09.453Z,581.00
2023-01-17T22:58:09.437Z,584.00
2023-01-17T22:59:09.421Z,585.00
2023-01-17T23:00:09.401Z,583.00
2023-01-17T23:01:09.568Z,584.00
2023-01-17T23:02:09.369Z,582.00
2023-01-17T23:03:09.482Z,578.00
2023-01-17T23:04:09.314Z,576.00
2023-01-17T23:05:09.307Z,575.00
2023-01-17T23:06:09.276Z,576.00
2023-01-17T23:07:09.262Z,576.00
2023-01-17T23:08:09.250Z,574.00
2023-01-17T23:09:09.232Z,574.00
2023-01-17T23:10:09.221Z,574.00
2023-01-17T23:11:09.196Z,573.00
2023-01-17T23:12:09.192Z,573.00
2023-01-17T23:13:09.165Z,572.00
2023-01-17T23:14:09.137Z,574.00
2023-01-17T23:15:09.122Z,572.00
2023-01-17T23:16:09.154Z,572.00
2023-01-17T23:17:09.108Z,574.00
2023-01-17T23:18:09.085Z,575.00
2023-01-17T23:19:09.049Z,573.00
2023-01-17T23:20:09.021Z,574.00
2023-01-17T23:21:09.030Z,577.00
2023-01-17T23:22:08.981Z,577.00
2023-01-17T23:23:08.970Z,575.00
2023-01-17T23:24:08.937Z,575.00
2023-01-17T23:25:08.953Z,576.00
2023-01-17T23:26:08.912Z,578.00
